Coeur D'Alene - Pappy Boyington Field
KCOE : now visible

Airfield :











YOU CAN JOIN US ON...

 
LOGIN :

Register | Disclaimer

   EN    FR    IT 

 









Legend :    VFR   Marginal VFR   IFR   Intensive IFR   Very Intensive IFR
Visi :
Ceiling :
>= 8 km
>= 3000ft
5 to 8 km
1000 to 3000 ft
1500m to 5 km
500 to 1000 ft
800 to 1500m
200 to 500 ft
< 800m
< 200 ft
Symbols :   Thunderstorms  Fog  Heavy snow  Heavy precipitations  Wind > 20 kt






- Airport Elevation : 2320 ft


KCOE - Coeur D'Alene - Pappy Boyington Field

CURRENT METAR :
  • 190756Z AUTO 35004KT 10SM FEW006 06/06 A3007 RMK AO2 SLP204 T00610061 401500061 PNO $

EXPIRED METARs :
  • 190744Z AUTO 36004KT 10SM FEW006 BKN110 06/06 A3007 RMK AO2 PNO $
  • 190656Z AUTO 09003KT 10SM FEW080 08/07 A3006 RMK AO2 RAE13 SLP202 T00780072 PNO $
  • 190556Z AUTO 15005KT 10SM -RA BKN075 BKN090 OVC110 08/07 A3008 RMK AO2 RAB54 SLP208 6//// T00830072 10106 20072 53013 PNO $
  • 190456Z AUTO 03005KT 10SM FEW075 08/07 A3007 RMK AO2 SLP204 T00780072 PNO $
  • 190356Z AUTO 03005KT 10SM FEW090 08/07 A3004 RMK AO2 SLP195 T00780072 PNO $

TAF KCOE
Valid from the 19 at 06:00 until the 20 at 06:00 UTC


190520Z 1906/2006 04005KT P6SM VCSH BKN070
FM190800 06006KT P6SM FEW070 BKN250
FM190900 04004KT P6SM BCFG FEW005 SCT080
FM191700 02007KT P6SM BKN060
KZSE FIR / North America



MET'MAP, your aeronautical weather chart ! - Copyright ORBIFLY December 2007 - Disclaimer

ORBIFLY MET'MAP TEAM :

Programming & Development : Alexandra Zaïnal
Original concept : Baudouin d'Aumeries
Technical & hardware support : Manuel Goepfert
Assistance : Marc-Olivier Méhu




SOURCES & CREDITS :

   NOAA       Earth
Advisory